sensor_id;sensor_type;location;lat;lon;timestamp;pressure;altitude;pressure_sealevel;temperature;humidity
84821;BME280;75463;50.988;11.332;2024-01-06T00:01:25;97626.34;;;0.47;95.27
84821;BME280;75463;50.988;11.332;2024-01-06T00:03:50;97633.47;;;0.36;95.38
84821;BME280;75463;50.988;11.332;2024-01-06T00:06:15;97640.06;;;0.29;95.03
84821;BME280;75463;50.988;11.332;2024-01-06T00:08:41;97633.72;;;0.20;95.08
84821;BME280;75463;50.988;11.332;2024-01-06T00:11:06;97636.91;;;0.17;95.60
84821;BME280;75463;50.988;11.332;2024-01-06T00:13:31;97636.38;;;0.15;95.34
84821;BME280;75463;50.988;11.332;2024-01-06T00:15:57;97652.75;;;0.02;95.04
84821;BME280;75463;50.988;11.332;2024-01-06T00:18:22;97651.16;;;-0.04;95.57
84821;BME280;75463;50.988;11.332;2024-01-06T00:20:47;97650.34;;;-0.09;95.06
84821;BME280;75463;50.988;11.332;2024-01-06T00:23:13;97646.91;;;-0.05;95.84
84821;BME280;75463;50.988;11.332;2024-01-06T00:25:38;97656.47;;;0.21;96.55
84821;BME280;75463;50.988;11.332;2024-01-06T00:28:04;97642.72;;;0.39;96.76
84821;BME280;75463;50.988;11.332;2024-01-06T00:30:29;97649.59;;;0.25;95.40
84821;BME280;75463;50.988;11.332;2024-01-06T00:32:54;97652.75;;;0.17;95.89
84821;BME280;75463;50.988;11.332;2024-01-06T00:35:20;97641.13;;;0.13;95.63
84821;BME280;75463;50.988;11.332;2024-01-06T00:37:45;97645.09;;;0.15;95.67
84821;BME280;75463;50.988;11.332;2024-01-06T00:40:11;97643.78;;;0.18;95.59
84821;BME280;75463;50.988;11.332;2024-01-06T00:42:36;97646.94;;;0.20;96.08
84821;BME280;75463;50.988;11.332;2024-01-06T00:45:01;97652.75;;;0.17;95.17
84821;BME280;75463;50.988;11.332;2024-01-06T00:47:27;97653.00;;;0.15;96.15
84821;BME280;75463;50.988;11.332;2024-01-06T00:49:52;97642.72;;;0.09;95.95
84821;BME280;75463;50.988;11.332;2024-01-06T00:52:17;97647.97;;;0.04;96.34
84821;BME280;75463;50.988;11.332;2024-01-06T00:54:42;97649.06;;;0.03;95.76
84821;BME280;75463;50.988;11.332;2024-01-06T00:57:08;97650.06;;;-0.03;95.57
84821;BME280;75463;50.988;11.332;2024-01-06T00:59:33;97649.28;;;-0.08;95.78
84821;BME280;75463;50.988;11.332;2024-01-06T01:01:58;97644.00;;;-0.08;95.67
84821;BME280;75463;50.988;11.332;2024-01-06T01:04:24;97650.06;;;-0.23;95.51
84821;BME280;75463;50.988;11.332;2024-01-06T01:06:49;97652.13;;;-0.35;95.43
84821;BME280;75463;50.988;11.332;2024-01-06T01:09:14;97651.28;;;-0.50;94.99
84821;BME280;75463;50.988;11.332;2024-01-06T01:11:40;97662.84;;;-0.61;95.46
84821;BME280;75463;50.988;11.332;2024-01-06T01:14:06;97661.25;;;-0.67;94.94
84821;BME280;75463;50.988;11.332;2024-01-06T01:16:31;97654.38;;;-0.73;95.48
84821;BME280;75463;50.988;11.332;2024-01-06T01:18:57;97652.00;;;-0.74;96.06
84821;BME280;75463;50.988;11.332;2024-01-06T01:21:23;97671.53;;;-0.65;96.40
84821;BME280;75463;50.988;11.332;2024-01-06T01:23:49;97668.44;;;-0.57;96.61
84821;BME280;75463;50.988;11.332;2024-01-06T01:26:14;97676.56;;;-0.64;96.15
84821;BME280;75463;50.988;11.332;2024-01-06T01:28:39;97672.31;;;-0.70;95.64
84821;BME280;75463;50.988;11.332;2024-01-06T01:31:05;97668.38;;;-0.62;96.32
84821;BME280;75463;50.988;11.332;2024-01-06T01:33:30;97673.16;;;-0.64;96.17
84821;BME280;75463;50.988;11.332;2024-01-06T01:35:55;97673.19;;;-0.50;96.82
84821;BME280;75463;50.988;11.332;2024-01-06T01:38:20;97666.66;;;-0.37;97.13
84821;BME280;75463;50.988;11.332;2024-01-06T01:40:46;97673.00;;;-0.23;97.17
84821;BME280;75463;50.988;11.332;2024-01-06T01:43:21;97684.38;;;-0.18;97.18
84821;BME280;75463;50.988;11.332;2024-01-06T01:45:50;97681.19;;;-0.30;96.29
84821;BME280;75463;50.988;11.332;2024-01-06T01:48:19;97687.69;;;-0.57;95.43
84821;BME280;75463;50.988;11.332;2024-01-06T01:50:45;97689.19;;;-0.71;95.53
84821;BME280;75463;50.988;11.332;2024-01-06T01:53:12;97692.31;;;-0.79;95.77
84821;BME280;75463;50.988;11.332;2024-01-06T01:55:37;97693.13;;;-0.78;96.40
84821;BME280;75463;50.988;11.332;2024-01-06T01:58:03;97692.34;;;-0.74;96.53
84821;BME280;75463;50.988;11.332;2024-01-06T02:00:28;97694.97;;;-0.74;96.42
84821;BME280;75463;50.988;11.332;2024-01-06T02:02:53;97700.25;;;-0.74;96.26
84821;BME280;75463;50.988;11.332;2024-01-06T02:05:19;97689.94;;;-0.80;96.06
84821;BME280;75463;50.988;11.332;2024-01-06T02:07:45;97699.69;;;-0.81;96.37
84821;BME280;75463;50.988;11.332;2024-01-06T02:10:10;97701.28;;;-0.75;96.60
84821;BME280;75463;50.988;11.332;2024-01-06T02:12:35;97698.91;;;-0.76;96.30
84821;BME280;75463;50.988;11.332;2024-01-06T02:15:01;97698.59;;;-0.90;95.89
84821;BME280;75463;50.988;11.332;2024-01-06T02:17:26;97705.91;;;-1.01;95.44
84821;BME280;75463;50.988;11.332;2024-01-06T02:19:51;97699.78;;;-1.12;95.20
84821;BME280;75463;50.988;11.332;2024-01-06T02:22:16;97699.19;;;-1.19;95.87
84821;BME280;75463;50.988;11.332;2024-01-06T02:24:42;97707.13;;;-1.19;96.58
84821;BME280;75463;50.988;11.332;2024-01-06T02:27:07;97713.47;;;-1.15;96.27
84821;BME280;75463;50.988;11.332;2024-01-06T02:29:32;97698.72;;;-1.11;96.54
84821;BME280;75463;50.988;11.332;2024-01-06T02:31:58;97704.88;;;-1.00;96.65
84821;BME280;75463;50.988;11.332;2024-01-06T02:34:23;97719.44;;;-0.88;97.21
84821;BME280;75463;50.988;11.332;2024-01-06T02:36:49;97713.75;;;-0.70;97.06
84821;BME280;75463;50.988;11.332;2024-01-06T02:39:14;97715.38;;;-0.59;96.85
84821;BME280;75463;50.988;11.332;2024-01-06T02:41:39;97718.06;;;-0.45;97.06
84821;BME280;75463;50.988;11.332;2024-01-06T02:44:05;97720.25;;;-0.27;97.12
84821;BME280;75463;50.988;11.332;2024-01-06T02:46:30;97712.31;;;-0.32;96.07
84821;BME280;75463;50.988;11.332;2024-01-06T02:48:55;97723.38;;;-0.35;96.28
84821;BME280;75463;50.988;11.332;2024-01-06T02:51:21;97716.09;;;-0.13;96.38
84821;BME280;75463;50.988;11.332;2024-01-06T02:53:46;97717.97;;;-0.08;95.95
84821;BME280;75463;50.988;11.332;2024-01-06T02:56:12;97722.72;;;-0.05;96.19
84821;BME280;75463;50.988;11.332;2024-01-06T02:58:37;97711.38;;;0.04;95.49
84821;BME280;75463;50.988;11.332;2024-01-06T03:01:03;97720.06;;;-0.01;95.37
84821;BME280;75463;50.988;11.332;2024-01-06T03:03:28;97717.44;;;-0.01;95.56
84821;BME280;75463;50.988;11.332;2024-01-06T03:05:53;97719.81;;;-0.04;95.49
84821;BME280;75463;50.988;11.332;2024-01-06T03:08:19;97721.66;;;0.05;96.03
84821;BME280;75463;50.988;11.332;2024-01-06T03:10:44;97719.81;;;0.01;96.08
84821;BME280;75463;50.988;11.332;2024-01-06T03:13:09;97717.50;;;0.34;96.22
84821;BME280;75463;50.988;11.332;2024-01-06T03:15:35;97730.44;;;0.26;95.54
84821;BME280;75463;50.988;11.332;2024-01-06T03:18:00;97726.78;;;0.32;95.34
84821;BME280;75463;50.988;11.332;2024-01-06T03:20:25;97730.44;;;0.26;95.15
84821;BME280;75463;50.988;11.332;2024-01-06T03:22:51;97727.78;;;0.16;95.17
84821;BME280;75463;50.988;11.332;2024-01-06T03:25:16;97723.53;;;0.05;94.48
84821;BME280;75463;50.988;11.332;2024-01-06T03:27:41;97716.38;;;0.00;95.59
84821;BME280;75463;50.988;11.332;2024-01-06T03:30:07;97726.16;;;0.00;96.22
84821;BME280;75463;50.988;11.332;2024-01-06T03:32:32;97718.47;;;-0.02;95.36
84821;BME280;75463;50.988;11.332;2024-01-06T03:34:58;97733.03;;;0.01;95.93
84821;BME280;75463;50.988;11.332;2024-01-06T03:37:23;97726.66;;;-0.03;95.70
84821;BME280;75463;50.988;11.332;2024-01-06T03:39:49;97730.94;;;0.03;95.83
84821;BME280;75463;50.988;11.332;2024-01-06T03:42:14;97731.53;;;0.35;95.81
84821;BME280;75463;50.988;11.332;2024-01-06T03:44:40;97728.88;;;0.35;94.98
84821;BME280;75463;50.988;11.332;2024-01-06T03:47:05;97732.28;;;0.25;94.96
84821;BME280;75463;50.988;11.332;2024-01-06T03:49:30;97734.94;;;0.25;95.28
84821;BME280;75463;50.988;11.332;2024-01-06T03:51:56;97739.13;;;0.21;94.91
84821;BME280;75463;50.988;11.332;2024-01-06T03:54:21;97746.78;;;0.13;95.51
84821;BME280;75463;50.988;11.332;2024-01-06T03:56:47;97735.97;;;0.19;95.24
84821;BME280;75463;50.988;11.332;2024-01-06T03:59:13;97753.91;;;0.07;95.30
84821;BME280;75463;50.988;11.332;2024-01-06T04:01:38;97747.84;;;0.17;95.73
84821;BME280;75463;50.988;11.332;2024-01-06T04:04:03;97739.13;;;0.11;95.57
84821;BME280;75463;50.988;11.332;2024-01-06T04:06:29;97742.53;;;0.07;95.77
84821;BME280;75463;50.988;11.332;2024-01-06T04:08:54;97738.84;;;0.03;95.95
84821;BME280;75463;50.988;11.332;2024-01-06T04:11:20;97759.94;;;-0.07;95.16
84821;BME280;75463;50.988;11.332;2024-01-06T04:13:46;97751.22;;;-0.12;96.21
84821;BME280;75463;50.988;11.332;2024-01-06T04:16:11;97753.56;;;-0.16;96.02
84821;BME280;75463;50.988;11.332;2024-01-06T04:18:36;97757.78;;;-0.20;95.80
84821;BME280;75463;50.988;11.332;2024-01-06T04:21:02;97757.22;;;-0.22;96.16
84821;BME280;75463;50.988;11.332;2024-01-06T04:23:27;97758.13;;;0.03;97.39
84821;BME280;75463;50.988;11.332;2024-01-06T04:25:53;97753.09;;;0.07;96.56
84821;BME280;75463;50.988;11.332;2024-01-06T04:28:18;97756.31;;;0.09;96.36
84821;BME280;75463;50.988;11.332;2024-01-06T04:30:43;97755.50;;;0.08;96.30
84821;BME280;75463;50.988;11.332;2024-01-06T04:33:09;97758.91;;;0.04;95.96
84821;BME280;75463;50.988;11.332;2024-01-06T04:35:34;97768.97;;;0.07;96.09
84821;BME280;75463;50.988;11.332;2024-01-06T04:37:59;97757.66;;;0.26;96.68
84821;BME280;75463;50.988;11.332;2024-01-06T04:40:25;97765.34;;;0.33;96.42
84821;BME280;75463;50.988;11.332;2024-01-06T04:42:50;97764.31;;;0.44;95.99
84821;BME280;75463;50.988;11.332;2024-01-06T04:45:15;97762.47;;;0.49;95.66
84821;BME280;75463;50.988;11.332;2024-01-06T04:47:41;97770.94;;;0.46;95.86
84821;BME280;75463;50.988;11.332;2024-01-06T04:50:06;97769.84;;;0.47;95.91
84821;BME280;75463;50.988;11.332;2024-01-06T04:52:32;97770.91;;;0.51;96.29
84821;BME280;75463;50.988;11.332;2024-01-06T04:54:57;97770.41;;;0.49;96.04
84821;BME280;75463;50.988;11.332;2024-01-06T04:57:23;97764.31;;;0.53;96.11
84821;BME280;75463;50.988;11.332;2024-01-06T04:59:48;97771.19;;;0.64;96.31
84821;BME280;75463;50.988;11.332;2024-01-06T05:02:13;97774.38;;;0.71;96.43
84821;BME280;75463;50.988;11.332;2024-01-06T05:04:39;97781.25;;;0.87;96.48
84821;BME280;75463;50.988;11.332;2024-01-06T05:07:04;97771.22;;;0.94;96.48
84821;BME280;75463;50.988;11.332;2024-01-06T05:09:29;97776.50;;;0.99;96.15
84821;BME280;75463;50.988;11.332;2024-01-06T05:11:55;97771.22;;;1.04;96.38
84821;BME280;75463;50.988;11.332;2024-01-06T05:14:20;97769.63;;;1.13;95.55
84821;BME280;75463;50.988;11.332;2024-01-06T05:16:45;97766.97;;;1.18;96.14
84821;BME280;75463;50.988;11.332;2024-01-06T05:19:11;97768.00;;;1.32;95.62
84821;BME280;75463;50.988;11.332;2024-01-06T05:21:36;97773.03;;;1.38;95.48
84821;BME280;75463;50.988;11.332;2024-01-06T05:24:02;97785.19;;;1.39;96.29
84821;BME280;75463;50.988;11.332;2024-01-06T05:26:28;97780.72;;;1.40;96.00
84821;BME280;75463;50.988;11.332;2024-01-06T05:28:53;97779.09;;;1.44;95.56
84821;BME280;75463;50.988;11.332;2024-01-06T05:31:19;97777.00;;;1.46;95.77
84821;BME280;75463;50.988;11.332;2024-01-06T05:33:44;97776.19;;;1.50;95.11
84821;BME280;75463;50.988;11.332;2024-01-06T05:36:09;97783.06;;;1.51;95.71
84821;BME280;75463;50.988;11.332;2024-01-06T05:38:36;97778.56;;;1.51;95.83
84821;BME280;75463;50.988;11.332;2024-01-06T05:41:01;97788.63;;;1.54;96.79
84821;BME280;75463;50.988;11.332;2024-01-06T05:43:27;97781.44;;;1.55;95.69
84821;BME280;75463;50.988;11.332;2024-01-06T05:45:52;97788.06;;;1.57;95.92
84821;BME280;75463;50.988;11.332;2024-01-06T05:48:17;97783.56;;;1.58;96.33
84821;BME280;75463;50.988;11.332;2024-01-06T05:50:43;97787.53;;;1.60;95.44
84821;BME280;75463;50.988;11.332;2024-01-06T05:53:08;97785.16;;;1.64;94.97
84821;BME280;75463;50.988;11.332;2024-01-06T05:55:34;97795.69;;;1.74;94.93
84821;BME280;75463;50.988;11.332;2024-01-06T05:57:59;97786.69;;;1.75;94.75
84821;BME280;75463;50.988;11.332;2024-01-06T06:00:26;97789.09;;;1.66;93.74
84821;BME280;75463;50.988;11.332;2024-01-06T06:02:51;97788.84;;;1.58;94.15
84821;BME280;75463;50.988;11.332;2024-01-06T06:05:16;97795.50;;;1.55;94.78
84821;BME280;75463;50.988;11.332;2024-01-06T06:07:42;97803.44;;;1.50;94.90
84821;BME280;75463;50.988;11.332;2024-01-06T06:10:08;97800.28;;;1.48;94.80
84821;BME280;75463;50.988;11.332;2024-01-06T06:12:34;97808.75;;;1.50;95.20
84821;BME280;75463;50.988;11.332;2024-01-06T06:15:00;97807.66;;;1.61;95.20
84821;BME280;75463;50.988;11.332;2024-01-06T06:17:25;97814.03;;;1.65;94.83
84821;BME280;75463;50.988;11.332;2024-01-06T06:19:51;97814.56;;;1.62;94.15
84821;BME280;75463;50.988;11.332;2024-01-06T06:22:16;97817.22;;;1.62;94.44
84821;BME280;75463;50.988;11.332;2024-01-06T06:24:41;97825.16;;;1.62;93.76
84821;BME280;75463;50.988;11.332;2024-01-06T06:27:07;97825.91;;;1.68;94.31
84821;BME280;75463;50.988;11.332;2024-01-06T06:29:32;97835.47;;;1.69;93.37
84821;BME280;75463;50.988;11.332;2024-01-06T06:31:57;97841.31;;;1.61;93.66
84821;BME280;75463;50.988;11.332;2024-01-06T06:34:23;97849.00;;;1.62;93.12
84821;BME280;75463;50.988;11.332;2024-01-06T06:36:48;97847.66;;;1.65;93.81
84821;BME280;75463;50.988;11.332;2024-01-06T06:39:14;97849.75;;;1.68;93.67
84821;BME280;75463;50.988;11.332;2024-01-06T06:41:39;97859.84;;;1.66;94.00
84821;BME280;75463;50.988;11.332;2024-01-06T06:44:04;97863.25;;;1.66;92.86
84821;BME280;75463;50.988;11.332;2024-01-06T06:46:29;97860.63;;;1.66;92.69
84821;BME280;75463;50.988;11.332;2024-01-06T06:48:55;97866.72;;;1.67;92.88
84821;BME280;75463;50.988;11.332;2024-01-06T06:51:20;97880.72;;;1.72;92.03
84821;BME280;75463;50.988;11.332;2024-01-06T06:53:50;97870.69;;;1.74;93.47
84821;BME280;75463;50.988;11.332;2024-01-06T06:56:15;97870.41;;;1.71;92.29
84821;BME280;75463;50.988;11.332;2024-01-06T06:58:42;97873.31;;;1.69;93.77
84821;BME280;75463;50.988;11.332;2024-01-06T07:01:07;97878.63;;;1.69;93.59
84821;BME280;75463;50.988;11.332;2024-01-06T07:03:33;97888.69;;;1.72;94.61
84821;BME280;75463;50.988;11.332;2024-01-06T07:05:58;97890.28;;;1.78;94.29
84821;BME280;75463;50.988;11.332;2024-01-06T07:08:23;97904.56;;;1.82;93.19
84821;BME280;75463;50.988;11.332;2024-01-06T07:10:48;97901.38;;;1.85;93.26
84821;BME280;75463;50.988;11.332;2024-01-06T07:13:14;97913.03;;;1.89;93.91
84821;BME280;75463;50.988;11.332;2024-01-06T07:15:39;97921.00;;;1.94;94.88
84821;BME280;75463;50.988;11.332;2024-01-06T07:18:04;97927.09;;;1.95;94.65
84821;BME280;75463;50.988;11.332;2024-01-06T07:20:30;97935.03;;;1.95;94.43
84821;BME280;75463;50.988;11.332;2024-01-06T07:22:55;97934.75;;;1.96;94.75
84821;BME280;75463;50.988;11.332;2024-01-06T07:25:20;97946.44;;;2.00;95.60
84821;BME280;75463;50.988;11.332;2024-01-06T07:27:45;97948.28;;;2.04;94.95
84821;BME280;75463;50.988;11.332;2024-01-06T07:30:11;97952.22;;;2.12;94.61
84821;BME280;75463;50.988;11.332;2024-01-06T07:32:36;97954.34;;;2.15;94.72
84821;BME280;75463;50.988;11.332;2024-01-06T07:35:02;97956.19;;;2.19;94.96
84821;BME280;75463;50.988;11.332;2024-01-06T07:37:27;97965.47;;;2.22;95.13
84821;BME280;75463;50.988;11.332;2024-01-06T07:39:53;97964.63;;;2.31;94.75
84821;BME280;75463;50.988;11.332;2024-01-06T07:42:18;97964.13;;;2.34;94.17
84821;BME280;75463;50.988;11.332;2024-01-06T07:44:43;97963.59;;;2.37;94.94
84821;BME280;75463;50.988;11.332;2024-01-06T07:47:09;97968.63;;;2.39;94.51
84821;BME280;75463;50.988;11.332;2024-01-06T07:49:35;97974.19;;;2.42;95.30
84821;BME280;75463;50.988;11.332;2024-01-06T07:52:00;97972.56;;;2.41;94.57
84821;BME280;75463;50.988;11.332;2024-01-06T07:54:25;97984.50;;;2.44;93.93
84821;BME280;75463;50.988;11.332;2024-01-06T07:56:50;97983.97;;;2.47;95.08
84821;BME280;75463;50.988;11.332;2024-01-06T07:59:16;97987.94;;;2.49;94.78
84821;BME280;75463;50.988;11.332;2024-01-06T08:01:41;97985.00;;;2.55;95.35
84821;BME280;75463;50.988;11.332;2024-01-06T08:04:08;97983.41;;;2.59;94.22
84821;BME280;75463;50.988;11.332;2024-01-06T08:06:33;97977.59;;;2.57;93.55
84821;BME280;75463;50.988;11.332;2024-01-06T08:08:59;97984.47;;;2.58;94.15
84821;BME280;75463;50.988;11.332;2024-01-06T08:11:24;97981.81;;;2.58;94.04
84821;BME280;75463;50.988;11.332;2024-01-06T08:13:49;97991.38;;;2.59;94.57
84821;BME280;75463;50.988;11.332;2024-01-06T08:16:15;97984.47;;;2.63;95.22
84821;BME280;75463;50.988;11.332;2024-01-06T08:18:40;97983.41;;;2.64;94.10
84821;BME280;75463;50.988;11.332;2024-01-06T08:21:05;97997.16;;;2.71;94.56
84821;BME280;75463;50.988;11.332;2024-01-06T08:23:31;97993.97;;;2.74;94.72
84821;BME280;75463;50.988;11.332;2024-01-06T08:25:56;97998.75;;;2.77;94.53
84821;BME280;75463;50.988;11.332;2024-01-06T08:28:22;97997.66;;;2.78;93.65
84821;BME280;75463;50.988;11.332;2024-01-06T08:30:49;98004.03;;;2.82;94.97
84821;BME280;75463;50.988;11.332;2024-01-06T08:33:14;98000.84;;;2.85;93.97
84821;BME280;75463;50.988;11.332;2024-01-06T08:35:40;98005.59;;;2.93;94.42
84821;BME280;75463;50.988;11.332;2024-01-06T08:38:08;98006.63;;;2.97;94.06
84821;BME280;75463;50.988;11.332;2024-01-06T08:40:34;98001.56;;;3.00;95.69
84821;BME280;75463;50.988;11.332;2024-01-06T08:42:59;98018.06;;;2.97;93.62
84821;BME280;75463;50.988;11.332;2024-01-06T08:45:25;98011.94;;;2.97;93.72
84821;BME280;75463;50.988;11.332;2024-01-06T08:47:50;98019.88;;;3.02;93.95
84821;BME280;75463;50.988;11.332;2024-01-06T08:50:15;98022.00;;;3.05;92.99
84821;BME280;75463;50.988;11.332;2024-01-06T08:52:40;98025.16;;;3.07;92.25
84821;BME280;75463;50.988;11.332;2024-01-06T08:55:06;98031.56;;;3.06;91.04
84821;BME280;75463;50.988;11.332;2024-01-06T08:57:31;98034.41;;;3.14;90.70
84821;BME280;75463;50.988;11.332;2024-01-06T08:59:57;98036.31;;;3.09;91.23
84821;BME280;75463;50.988;11.332;2024-01-06T09:02:22;98048.25;;;3.16;91.38
84821;BME280;75463;50.988;11.332;2024-01-06T09:04:47;98051.41;;;3.18;92.37
84821;BME280;75463;50.988;11.332;2024-01-06T09:07:12;98047.97;;;3.18;91.46
84821;BME280;75463;50.988;11.332;2024-01-06T09:09:38;98046.91;;;3.19;92.31
84821;BME280;75463;50.988;11.332;2024-01-06T09:12:03;98047.41;;;3.16;91.16
84821;BME280;75463;50.988;11.332;2024-01-06T09:14:29;98047.41;;;3.21;92.68
84821;BME280;75463;50.988;11.332;2024-01-06T09:16:55;98046.88;;;3.24;92.55
84821;BME280;75463;50.988;11.332;2024-01-06T09:19:20;98046.06;;;3.28;92.13
84821;BME280;75463;50.988;11.332;2024-01-06T09:21:47;98044.47;;;3.27;92.47
84821;BME280;75463;50.988;11.332;2024-01-06T09:24:12;98057.44;;;3.34;93.19
84821;BME280;75463;50.988;11.332;2024-01-06T09:26:37;98057.97;;;3.41;90.71
84821;BME280;75463;50.988;11.332;2024-01-06T09:29:03;98060.84;;;3.49;90.35
84821;BME280;75463;50.988;11.332;2024-01-06T09:31:29;98062.09;;;3.61;90.24
84821;BME280;75463;50.988;11.332;2024-01-06T09:33:54;98064.13;;;3.74;90.62
84821;BME280;75463;50.988;11.332;2024-01-06T09:36:19;98061.09;;;3.91;89.21
84821;BME280;75463;50.988;11.332;2024-01-06T09:38:45;98055.19;;;3.98;89.98
84821;BME280;75463;50.988;11.332;2024-01-06T09:41:10;98063.19;;;3.98;88.98
84821;BME280;75463;50.988;11.332;2024-01-06T09:43:36;98053.25;;;4.09;89.72
84821;BME280;75463;50.988;11.332;2024-01-06T09:46:26;98064.59;;;4.24;88.37
84821;BME280;75463;50.988;11.332;2024-01-06T09:48:53;98069.50;;;4.07;86.05
84821;BME280;75463;50.988;11.332;2024-01-06T09:51:20;98074.78;;;4.12;87.71
84821;BME280;75463;50.988;11.332;2024-01-06T09:54:00;98078.91;;;4.28;88.17
84821;BME280;75463;50.988;11.332;2024-01-06T09:56:26;98065.81;;;4.37;88.68
84821;BME280;75463;50.988;11.332;2024-01-06T09:58:53;98075.34;;;4.43;87.86
84821;BME280;75463;50.988;11.332;2024-01-06T10:01:19;98070.50;;;4.49;85.86
84821;BME280;75463;50.988;11.332;2024-01-06T10:03:44;98073.66;;;4.51;84.89
84821;BME280;75463;50.988;11.332;2024-01-06T10:06:13;98080.75;;;4.61;84.81
84821;BME280;75463;50.988;11.332;2024-01-06T10:08:42;98075.00;;;4.77;85.52
84821;BME280;75463;50.988;11.332;2024-01-06T10:11:08;98074.94;;;4.82;86.94
84821;BME280;75463;50.988;11.332;2024-01-06T10:13:34;98065.34;;;4.86;85.42
84821;BME280;75463;50.988;11.332;2024-01-06T10:16:00;98073.25;;;4.91;85.00
84821;BME280;75463;50.988;11.332;2024-01-06T10:18:27;98072.94;;;4.97;86.03
84821;BME280;75463;50.988;11.332;2024-01-06T10:20:55;98066.66;;;5.12;86.20
84821;BME280;75463;50.988;11.332;2024-01-06T10:23:22;98073.09;;;5.29;85.14
84821;BME280;75463;50.988;11.332;2024-01-06T10:25:47;98073.19;;;5.43;84.43
84821;BME280;75463;50.988;11.332;2024-01-06T10:28:13;98080.88;;;5.67;83.40
84821;BME280;75463;50.988;11.332;2024-01-06T10:30:40;98073.66;;;5.68;84.50
84821;BME280;75463;50.988;11.332;2024-01-06T10:33:09;98077.06;;;5.73;82.42
84821;BME280;75463;50.988;11.332;2024-01-06T10:35:36;98076.72;;;5.80;82.06
84821;BME280;75463;50.988;11.332;2024-01-06T10:38:02;98080.00;;;5.95;83.66
84821;BME280;75463;50.988;11.332;2024-01-06T10:40:28;98077.81;;;5.97;83.02
84821;BME280;75463;50.988;11.332;2024-01-06T10:42:55;98069.59;;;6.12;79.77
84821;BME280;75463;50.988;11.332;2024-01-06T10:45:23;98072.06;;;6.40;81.83
84821;BME280;75463;50.988;11.332;2024-01-06T10:47:49;98076.22;;;6.78;78.09
84821;BME280;75463;50.988;11.332;2024-01-06T10:50:15;98072.28;;;6.89;80.18
84821;BME280;75463;50.988;11.332;2024-01-06T10:52:43;98069.81;;;6.92;78.34
84821;BME280;75463;50.988;11.332;2024-01-06T10:55:09;98073.22;;;7.38;77.03
84821;BME280;75463;50.988;11.332;2024-01-06T10:57:37;98064.03;;;7.92;72.39
84821;BME280;75463;50.988;11.332;2024-01-06T11:00:03;98061.41;;;8.79;71.92
84821;BME280;75463;50.988;11.332;2024-01-06T11:02:31;98055.50;;;9.38;70.11
84821;BME280;75463;50.988;11.332;2024-01-06T11:05:00;98050.38;;;9.58;68.65
84821;BME280;75463;50.988;11.332;2024-01-06T11:07:26;98049.03;;;10.02;66.95
84821;BME280;75463;50.988;11.332;2024-01-06T11:12:34;98054.63;;;10.85;63.06
84821;BME280;75463;50.988;11.332;2024-01-06T11:15:00;98059.63;;;11.12;61.40
84821;BME280;75463;50.988;11.332;2024-01-06T11:17:53;98045.72;;;11.39;60.24
84821;BME280;75463;50.988;11.332;2024-01-06T11:20:20;98049.34;;;11.80;58.47
84821;BME280;75463;50.988;11.332;2024-01-06T11:22:50;98038.63;;;12.12;56.07
84821;BME280;75463;50.988;11.332;2024-01-06T11:25:17;98045.28;;;11.37;57.60
84821;BME280;75463;50.988;11.332;2024-01-06T11:27:44;98054.91;;;11.00;60.56
84821;BME280;75463;50.988;11.332;2024-01-06T11:30:23;98050.91;;;10.52;60.67
84821;BME280;75463;50.988;11.332;2024-01-06T11:32:50;98048.09;;;9.98;61.38
84821;BME280;75463;50.988;11.332;2024-01-06T11:35:18;98058.94;;;9.85;61.87
84821;BME280;75463;50.988;11.332;2024-01-06T11:40:09;98053.59;;;10.02;61.83
84821;BME280;75463;50.988;11.332;2024-01-06T11:42:37;98066.28;;;10.18;62.19
84821;BME280;75463;50.988;11.332;2024-01-06T11:45:04;98050.78;;;10.07;60.72
84821;BME280;75463;50.988;11.332;2024-01-06T11:47:32;98055.66;;;10.13;61.80
84821;BME280;75463;50.988;11.332;2024-01-06T11:49:58;98047.00;;;9.99;62.26
84821;BME280;75463;50.988;11.332;2024-01-06T11:52:24;98036.19;;;9.91;60.85
84821;BME280;75463;50.988;11.332;2024-01-06T11:54:52;98043.28;;;9.87;60.52
84821;BME280;75463;50.988;11.332;2024-01-06T11:57:17;98053.81;;;9.58;61.80
84821;BME280;75463;50.988;11.332;2024-01-06T11:59:43;98054.41;;;9.39;63.36
84821;BME280;75463;50.988;11.332;2024-01-06T12:02:12;98051.66;;;9.22;63.22
84821;BME280;75463;50.988;11.332;2024-01-06T12:04:38;98052.84;;;9.07;65.08
84821;BME280;75463;50.988;11.332;2024-01-06T12:07:07;98056.03;;;8.79;65.47
84821;BME280;75463;50.988;11.332;2024-01-06T12:09:32;98051.59;;;8.53;65.67
84821;BME280;75463;50.988;11.332;2024-01-06T12:12:03;98051.75;;;8.48;66.07
84821;BME280;75463;50.988;11.332;2024-01-06T12:14:29;98045.47;;;8.52;66.86
84821;BME280;75463;50.988;11.332;2024-01-06T12:16:55;98055.34;;;8.44;67.03
84821;BME280;75463;50.988;11.332;2024-01-06T12:19:22;98056.06;;;8.36;66.70
84821;BME280;75463;50.988;11.332;2024-01-06T12:21:48;98061.06;;;8.50;66.24
84821;BME280;75463;50.988;11.332;2024-01-06T12:24:18;98056.25;;;8.04;67.50
84821;BME280;75463;50.988;11.332;2024-01-06T12:26:45;98061.53;;;7.95;67.65
84821;BME280;75463;50.988;11.332;2024-01-06T12:29:12;98071.38;;;7.87;69.42
84821;BME280;75463;50.988;11.332;2024-01-06T12:31:39;98061.09;;;7.80;69.81
84821;BME280;75463;50.988;11.332;2024-01-06T12:34:04;98076.16;;;7.76;68.41
84821;BME280;75463;50.988;11.332;2024-01-06T12:36:30;98066.88;;;7.60;68.80
84821;BME280;75463;50.988;11.332;2024-01-06T12:38:57;98062.34;;;7.34;69.66
84821;BME280;75463;50.988;11.332;2024-01-06T12:41:24;98068.94;;;7.37;71.18
84821;BME280;75463;50.988;11.332;2024-01-06T12:43:49;98077.69;;;7.29;71.05
84821;BME280;75463;50.988;11.332;2024-01-06T12:46:15;98081.13;;;7.29;71.47
84821;BME280;75463;50.988;11.332;2024-01-06T12:48:41;98077.78;;;7.37;70.19
84821;BME280;75463;50.988;11.332;2024-01-06T12:51:07;98079.75;;;7.32;70.43
84821;BME280;75463;50.988;11.332;2024-01-06T12:53:32;98090.75;;;7.30;71.51
84821;BME280;75463;50.988;11.332;2024-01-06T12:55:57;98090.44;;;7.32;71.38